createdAt,value
2017-07-15T00:00:15.808Z,89.82
2017-07-15T00:01:15.785Z,89.34
2017-07-15T00:02:15.764Z,89.73
2017-07-15T00:03:15.741Z,89.82
2017-07-15T00:04:15.412Z,89.25
2017-07-15T00:05:15.694Z,89.73
2017-07-15T00:06:15.669Z,88.96
2017-07-15T00:07:15.646Z,89.53
2017-07-15T00:08:15.621Z,89.34
2017-07-15T00:09:15.295Z,89.06
2017-07-15T00:10:15.272Z,89.06
2017-07-15T00:11:15.553Z,89.34
2017-07-15T00:12:15.225Z,89.06
2017-07-15T00:13:15.507Z,89.25
2017-07-15T00:14:15.482Z,89.06
2017-07-15T00:15:15.459Z,89.15
2017-07-15T00:16:15.435Z,89.15
2017-07-15T00:17:15.413Z,88.87
2017-07-15T00:18:15.388Z,88.87
2017-07-15T00:19:15.367Z,88.96
2017-07-15T00:20:15.342Z,88.58
2017-07-15T00:21:15.320Z,88.77
2017-07-15T00:22:15.294Z,88.77
2017-07-15T00:23:15.273Z,88.87
2017-07-15T00:24:15.271Z,88.77
2017-07-15T00:25:15.230Z,88.77
2017-07-15T00:26:15.206Z,88.48
2017-07-15T00:27:15.182Z,88.48
2017-07-15T00:28:15.158Z,88.68
2017-07-15T00:29:15.134Z,88.96
2017-07-15T00:30:15.109Z,88.96
2017-07-15T00:31:15.090Z,88.68
2017-07-15T00:32:15.066Z,88.96
2017-07-15T00:33:15.041Z,89.06
2017-07-15T00:34:15.021Z,89.15
2017-07-15T00:35:14.993Z,88.96
2017-07-15T00:36:14.666Z,89.15
2017-07-15T00:37:14.643Z,88.77
2017-07-15T00:38:14.620Z,89.06
2017-07-15T00:39:14.902Z,88.77
2017-07-15T00:40:14.878Z,88.77
2017-07-15T00:41:14.855Z,88.39
2017-07-15T00:42:14.832Z,88.39
2017-07-15T00:43:14.811Z,88.58
2017-07-15T00:44:14.480Z,88.48
2017-07-15T00:45:14.457Z,88.58
2017-07-15T00:46:14.434Z,88.39
2017-07-15T00:47:14.410Z,88.77
2017-07-15T00:48:14.388Z,88.68
2017-07-15T00:49:14.669Z,88.58
2017-07-15T00:50:14.646Z,88.39
2017-07-15T00:51:14.622Z,88.77
2017-07-15T00:52:14.600Z,88.39
2017-07-15T00:53:14.577Z,88.39
2017-07-15T00:54:14.554Z,88.39
2017-07-15T00:55:14.225Z,88.29
2017-07-15T00:56:14.505Z,88.39
2017-07-15T00:57:14.483Z,88.39
2017-07-15T00:58:14.459Z,88.48
2017-07-15T00:59:14.438Z,88.2
2017-07-15T01:00:14.416Z,88.29
2017-07-15T01:01:14.086Z,88.2
2017-07-15T01:02:14.369Z,88.1
2017-07-15T01:03:14.342Z,88.2
2017-07-15T01:04:14.320Z,88.29
2017-07-15T01:05:14.297Z,88.1
2017-07-15T01:06:14.274Z,88.1
2017-07-15T01:07:14.286Z,88.39
2017-07-15T01:08:14.230Z,88.1
2017-07-15T01:09:14.209Z,88.2
2017-07-15T01:10:14.078Z,88.2
2017-07-15T01:11:14.158Z,88.1
2017-07-15T01:12:13.975Z,88.01
2017-07-15T01:13:14.110Z,88.1
2017-07-15T01:14:13.784Z,88.48
2017-07-15T01:15:14.065Z,88.01
2017-07-15T01:16:13.739Z,88.2
2017-07-15T01:17:14.018Z,88.01
2017-07-15T01:18:13.995Z,88.2
2017-07-15T01:19:13.973Z,88.2
2017-07-15T01:20:13.949Z,88.2
2017-07-15T01:21:13.927Z,88.29
2017-07-15T01:22:13.598Z,88.39
2017-07-15T01:23:13.575Z,87.91
2017-07-15T01:24:13.551Z,88.48
2017-07-15T01:25:13.832Z,88.39
2017-07-15T01:26:13.811Z,88.01
2017-07-15T01:27:13.482Z,88.58
2017-07-15T01:28:13.458Z,88.39
2017-07-15T01:29:13.740Z,89.06
2017-07-15T01:30:13.412Z,88.96
2017-07-15T01:31:13.390Z,88.58
2017-07-15T01:32:13.669Z,88.77
2017-07-15T01:33:13.646Z,89.25
2017-07-15T01:34:13.623Z,89.06
2017-07-15T01:35:13.601Z,89.3
2017-07-15T01:36:13.576Z,89.59
2017-07-15T01:37:13.553Z,89.68
2017-07-15T01:38:13.531Z,89.68
2017-07-15T01:39:13.506Z,89.78
2017-07-15T01:40:13.483Z,89.59
2017-07-15T01:41:13.459Z,90.16
2017-07-15T01:42:13.132Z,90.45
2017-07-15T01:43:13.414Z,91.02
2017-07-15T01:44:13.395Z,90.92
2017-07-15T01:45:13.372Z,91.21
2017-07-15T01:46:13.039Z,91.3
2017-07-15T01:47:13.320Z,91.69
2017-07-15T01:48:13.296Z,92.26
2017-07-15T01:49:13.272Z,91.88
2017-07-15T01:50:13.249Z,92.83
2017-07-15T01:51:12.922Z,92.55
2017-07-15T01:52:13.204Z,92.64
2017-07-15T01:53:13.179Z,93.02
2017-07-15T01:54:13.156Z,93.21
2017-07-15T01:55:13.133Z,93.21
2017-07-15T01:56:13.110Z,93.02
2017-07-15T01:57:13.087Z,93.79
2017-07-15T01:58:13.064Z,93.79
2017-07-15T01:59:13.041Z,93.98
2017-07-15T02:00:13.157Z,93.17
2017-07-15T02:01:12.993Z,94.36
2017-07-15T02:02:12.664Z,94.51
2017-07-15T02:03:12.947Z,94.27
2017-07-15T02:04:12.919Z,94.31
2017-07-15T02:05:12.593Z,94.41
2017-07-15T02:06:12.881Z,94.41
2017-07-15T02:07:12.852Z,94.98
2017-07-15T02:08:12.523Z,94.79
2017-07-15T02:09:12.818Z,94.89
2017-07-15T02:10:12.476Z,94.98
2017-07-15T02:11:13.005Z,94.98
2017-07-15T02:12:12.735Z,94.89
2017-07-15T02:13:12.709Z,95.56
2017-07-15T02:14:12.688Z,95.65
2017-07-15T02:15:12.663Z,95.46
2017-07-15T02:16:12.639Z,95.36
2017-07-15T02:17:12.615Z,95.27
2017-07-15T02:18:12.593Z,95.56
2017-07-15T02:19:12.568Z,95.56
2017-07-15T02:20:12.546Z,95.75
2017-07-15T02:21:12.523Z,95.75
2017-07-15T02:22:12.193Z,95.65
2017-07-15T02:23:12.169Z,95.56
2017-07-15T02:24:12.146Z,95.75
2017-07-15T02:25:12.124Z,95.56
2017-07-15T02:26:12.405Z,95.22
2017-07-15T02:27:12.382Z,95.7
2017-07-15T02:28:12.370Z,95.89
2017-07-15T02:29:12.341Z,95.61
2017-07-15T02:30:12.310Z,95.7
2017-07-15T02:31:12.286Z,95.61
2017-07-15T02:32:11.959Z,95.89
2017-07-15T02:33:12.240Z,95.79
2017-07-15T02:34:12.216Z,95.22
2017-07-15T02:35:12.195Z,95.7
2017-07-15T02:36:12.170Z,95.61
2017-07-15T02:37:12.146Z,95.79
2017-07-15T02:38:12.123Z,95.89
2017-07-15T02:39:11.795Z,95.51
2017-07-15T02:40:11.774Z,95.46
2017-07-15T02:41:12.054Z,95.7
2017-07-15T02:42:11.726Z,95.22
2017-07-15T02:43:11.702Z,95.51
2017-07-15T02:44:11.983Z,95.61
2017-07-15T02:45:11.655Z,95.79
2017-07-15T02:46:11.938Z,95.32
2017-07-15T02:47:11.913Z,95.98
2017-07-15T02:48:11.584Z,95.32
2017-07-15T02:49:11.863Z,95.7
2017-07-15T02:50:11.537Z,95.98
2017-07-15T02:51:11.819Z,95.7
2017-07-15T02:52:11.797Z,95.61
2017-07-15T02:53:11.772Z,95.51
2017-07-15T02:54:11.752Z,95.51
2017-07-15T02:55:11.724Z,95.32
2017-07-15T02:56:11.701Z,95.41
2017-07-15T02:57:11.676Z,95.61
2017-07-15T02:58:11.350Z,95.32
2017-07-15T02:59:11.632Z,95.7
2017-07-15T03:00:11.303Z,95.61
2017-07-15T03:01:11.584Z,95.51
2017-07-15T03:02:11.559Z,95.51
2017-07-15T03:03:11.535Z,95.7
2017-07-15T03:04:11.515Z,95.51
2017-07-15T03:05:11.497Z,94.93
2017-07-15T03:06:11.470Z,94.84
2017-07-15T03:07:11.442Z,95.12
2017-07-15T03:08:11.115Z,95.32
2017-07-15T03:09:11.399Z,95.12
2017-07-15T03:10:11.375Z,94.65
2017-07-15T03:11:11.351Z,95.03
2017-07-15T03:12:11.023Z,95.03
2017-07-15T03:13:11.302Z,94.93
2017-07-15T03:14:11.039Z,95.03
2017-07-15T03:15:11.256Z,94.84
2017-07-15T03:16:10.929Z,94.74
2017-07-15T03:17:11.240Z,94.65
2017-07-15T03:18:11.187Z,94.93
2017-07-15T03:19:11.165Z,95.12
2017-07-15T03:20:11.142Z,94.55
2017-07-15T03:21:11.116Z,94.46
2017-07-15T03:22:10.789Z,94.36
2017-07-15T03:23:10.766Z,94.55
2017-07-15T03:24:11.045Z,94.36
2017-07-15T03:25:11.024Z,94.36
2017-07-15T03:26:11.003Z,94.36
2017-07-15T03:27:10.977Z,94.27
2017-07-15T03:28:10.953Z,94.36
2017-07-15T03:29:10.931Z,94.36
2017-07-15T03:30:10.602Z,94.55
2017-07-15T03:31:10.884Z,94.17
2017-07-15T03:32:10.861Z,94.27
2017-07-15T03:33:10.839Z,94.07
2017-07-15T03:34:10.815Z,94.27
2017-07-15T03:35:10.791Z,94.07
2017-07-15T03:36:10.800Z,94.07
2017-07-15T03:37:10.746Z,94.27
2017-07-15T03:38:10.725Z,94.36
2017-07-15T03:39:10.698Z,94.36
2017-07-15T03:40:10.676Z,94.46
2017-07-15T03:41:10.349Z,94.55
2017-07-15T03:42:10.629Z,94.36
2017-07-15T03:43:10.608Z,94.36
2017-07-15T03:44:10.583Z,94.22
2017-07-15T03:45:10.559Z,94.41
2017-07-15T03:46:10.232Z,94.22
2017-07-15T03:47:10.209Z,93.74
2017-07-15T03:48:10.187Z,94.22
2017-07-15T03:49:10.470Z,94.22
2017-07-15T03:50:10.448Z,94.12
2017-07-15T03:51:10.421Z,94.22
2017-07-15T03:52:10.399Z,93.74
2017-07-15T03:53:10.376Z,93.93
2017-07-15T03:54:10.048Z,94.41
2017-07-15T03:55:10.329Z,94.41
2017-07-15T03:56:10.308Z,94.51
2017-07-15T03:57:10.284Z,94.41
2017-07-15T03:58:10.261Z,94.51
2017-07-15T03:59:10.237Z,94.41
2017-07-15T04:00:10.215Z,94.12
2017-07-15T04:01:10.191Z,94.12
2017-07-15T04:02:10.168Z,94.79
2017-07-15T04:03:10.146Z,94.31
2017-07-15T04:04:10.122Z,94.6
2017-07-15T04:05:10.098Z,94.22
2017-07-15T04:06:10.078Z,94.7
2017-07-15T04:07:10.054Z,94.6
2017-07-15T04:08:10.029Z,94.41
2017-07-15T04:09:10.006Z,94.6
2017-07-15T04:10:09.983Z,94.7
2017-07-15T04:11:09.961Z,94.6
2017-07-15T04:12:09.938Z,94.6
2017-07-15T04:13:09.610Z,94.6
2017-07-15T04:14:09.892Z,94.22
2017-07-15T04:15:09.874Z,94.51
2017-07-15T04:16:09.846Z,94.31
2017-07-15T04:17:09.824Z,94.22
2017-07-15T04:18:09.495Z,94.22
2017-07-15T04:19:09.775Z,94.31
2017-07-15T04:20:09.758Z,94.31
2017-07-15T04:21:09.731Z,94.31
2017-07-15T04:22:09.403Z,94.31
2017-07-15T04:23:09.379Z,94.31
2017-07-15T04:24:09.661Z,94.41
2017-07-15T04:25:09.639Z,94.31
2017-07-15T04:26:09.616Z,94.79
2017-07-15T04:27:09.592Z,94.6
2017-07-15T04:28:09.571Z,94.12
2017-07-15T04:29:09.555Z,94.12
2017-07-15T04:30:09.526Z,94.12
2017-07-15T04:31:09.502Z,94.41
2017-07-15T04:32:09.175Z,94.22
2017-07-15T04:33:09.460Z,94.31
2017-07-15T04:34:09.128Z,94.22
2017-07-15T04:35:09.412Z,94.41
2017-07-15T04:36:09.103Z,94.31
2017-07-15T04:37:09.061Z,94.31
2017-07-15T04:38:09.342Z,94.22
2017-07-15T04:39:09.319Z,94.51
2017-07-15T04:40:08.993Z,94.41
2017-07-15T04:41:09.274Z,94.41
2017-07-15T04:42:09.250Z,94.22
2017-07-15T04:43:09.230Z,94.12
2017-07-15T04:44:09.205Z,93.36
2017-07-15T04:45:09.185Z,93.55
2017-07-15T04:46:09.168Z,93.84
2017-07-15T04:47:09.140Z,93.84
2017-07-15T04:48:08.810Z,93.74
2017-07-15T04:49:09.090Z,93.74
2017-07-15T04:50:09.069Z,93.74
2017-07-15T04:51:09.046Z,93.84
2017-07-15T04:52:09.021Z,93.45
2017-07-15T04:53:09.001Z,93.74
2017-07-15T04:54:08.673Z,93.55
2017-07-15T04:55:08.651Z,93.84
2017-07-15T04:56:08.931Z,93.74
2017-07-15T04:57:08.606Z,93.74
2017-07-15T04:58:08.893Z,93.26
2017-07-15T04:59:08.868Z,93.36
2017-07-15T05:00:08.849Z,93.16
2017-07-15T05:01:08.820Z,93.26
2017-07-15T05:02:08.798Z,93.26
2017-07-15T05:03:08.774Z,92.64
2017-07-15T05:04:08.755Z,92.93
2017-07-15T05:05:08.733Z,92.93
2017-07-15T05:06:08.710Z,93.02
2017-07-15T05:07:08.685Z,92.64
2017-07-15T05:08:08.663Z,92.54
2017-07-15T05:09:08.337Z,92.07
2017-07-15T05:10:08.618Z,92.25
2017-07-15T05:11:08.643Z,91.97
2017-07-15T05:12:08.276Z,91.88
2017-07-15T05:13:08.251Z,92.16
2017-07-15T05:14:08.228Z,91.97
2017-07-15T05:15:08.510Z,91.78
2017-07-15T05:16:08.184Z,91.68
2017-07-15T05:17:08.468Z,91.78
2017-07-15T05:18:08.465Z,92.07
2017-07-15T05:19:08.118Z,92.25
2017-07-15T05:20:08.404Z,91.3
2017-07-15T05:21:08.385Z,91.97
2017-07-15T05:22:08.356Z,92.07
2017-07-15T05:23:08.333Z,92.07
2017-07-15T05:24:08.009Z,91.11
2017-07-15T05:25:07.987Z,91.59
2017-07-15T05:26:08.270Z,91.59
2017-07-15T05:27:08.248Z,91.59
2017-07-15T05:28:08.229Z,91.39
2017-07-15T05:29:08.204Z,91.59
2017-07-15T05:30:08.183Z,91.78
2017-07-15T05:31:08.161Z,91.59
2017-07-15T05:32:08.140Z,91.3
2017-07-15T05:33:07.820Z,91.11
2017-07-15T05:34:08.096Z,91.3
2017-07-15T05:35:08.076Z,90.82
2017-07-15T05:36:08.053Z,90.96
2017-07-15T05:37:08.033Z,90.63
2017-07-15T05:38:08.010Z,91.3
2017-07-15T05:39:07.991Z,91.11
2017-07-15T05:40:07.970Z,90.82
2017-07-15T05:41:07.947Z,91.3
2017-07-15T05:42:07.622Z,90.44
2017-07-15T05:43:07.905Z,90.44
2017-07-15T05:44:07.889Z,90.92
2017-07-15T05:45:07.864Z,91.11
2017-07-15T05:46:07.536Z,90.82
2017-07-15T05:47:07.826Z,90.82
2017-07-15T05:48:07.495Z,90.92
2017-07-15T05:49:07.780Z,91.11
2017-07-15T05:50:07.757Z,90.63
2017-07-15T05:51:07.431Z,90.34
2017-07-15T05:52:07.715Z,90.44
2017-07-15T05:53:07.695Z,90.53
2017-07-15T05:54:07.671Z,90.34
2017-07-15T05:55:07.653Z,90.44
2017-07-15T05:56:07.630Z,90.53
2017-07-15T05:57:07.609Z,90.53
2017-07-15T05:58:07.587Z,90.53
2017-07-15T05:59:07.569Z,90.53
2017-07-15T06:00:07.240Z,90.67
2017-07-15T06:01:07.219Z,90.73
2017-07-15T06:02:07.503Z,90.53
2017-07-15T06:03:07.481Z,90.1
2017-07-15T06:04:07.461Z,90.06
2017-07-15T06:05:07.439Z,90.34
2017-07-15T06:06:07.417Z,90.2
2017-07-15T06:07:07.092Z,90.2
2017-07-15T06:08:07.379Z,90.44
2017-07-15T06:09:07.353Z,90.3
2017-07-15T06:10:07.383Z,89.91
2017-07-15T06:11:07.313Z,89.62
2017-07-15T06:12:07.291Z,90.01
2017-07-15T06:13:07.272Z,88.86
2017-07-15T06:14:07.250Z,89.43
2017-07-15T06:15:07.234Z,89.34
2017-07-15T06:16:07.207Z,89.05
2017-07-15T06:17:07.188Z,88.67
2017-07-15T06:18:06.863Z,88.95
2017-07-15T06:19:07.147Z,88.76
2017-07-15T06:20:07.128Z,88.48
2017-07-15T06:21:07.107Z,88.81
2017-07-15T06:22:06.782Z,88.23
2017-07-15T06:23:07.066Z,88.13
2017-07-15T06:24:07.044Z,88.52
2017-07-15T06:25:07.027Z,87.66
2017-07-15T06:26:07.007Z,87.66
2017-07-15T06:27:06.986Z,87.37
2017-07-15T06:28:06.665Z,87.08
2017-07-15T06:29:06.997Z,87.08
2017-07-15T06:30:06.929Z,87.18
2017-07-15T06:31:06.906Z,87.18
2017-07-15T06:32:06.889Z,87.27
2017-07-15T06:33:06.868Z,87.47
2017-07-15T06:34:06.545Z,87.95
2017-07-15T06:35:06.844Z,88.04
2017-07-15T06:36:06.810Z,87.76
2017-07-15T06:37:06.791Z,87.85
2017-07-15T06:38:06.767Z,87.95
2017-07-15T06:39:06.750Z,87.27
2017-07-15T06:40:06.729Z,87.37
2017-07-15T06:41:06.714Z,87.27
2017-07-15T06:42:06.689Z,87.27
2017-07-15T06:43:06.669Z,87.27
2017-07-15T06:44:06.344Z,87.56
2017-07-15T06:45:06.323Z,87.27
2017-07-15T06:46:06.607Z,87.27
2017-07-15T06:47:06.589Z,87.37
2017-07-15T06:48:06.567Z,87.27
2017-07-15T06:49:06.547Z,86.7
2017-07-15T06:50:06.537Z,86.7
2017-07-15T06:51:06.507Z,86.7
2017-07-15T06:52:06.186Z,86.61
2017-07-15T06:53:06.469Z,86.8
2017-07-15T06:54:06.445Z,86.22
2017-07-15T06:55:06.427Z,86.13
2017-07-15T06:56:06.406Z,86.27
2017-07-15T06:57:06.083Z,86.22
2017-07-15T06:58:06.368Z,85.79
2017-07-15T06:59:06.349Z,85.79
2017-07-15T07:00:06.327Z,85.88
2017-07-15T07:01:06.003Z,85.31
2017-07-15T07:02:06.290Z,85.31
2017-07-15T07:03:05.965Z,85.21
2017-07-15T07:04:05.944Z,85.02
2017-07-15T07:05:06.230Z,85.41
2017-07-15T07:06:06.209Z,85.41
2017-07-15T07:07:06.190Z,85.02
2017-07-15T07:08:05.867Z,84.83
2017-07-15T07:09:05.848Z,84.55
2017-07-15T07:10:05.829Z,84.16
2017-07-15T07:11:06.116Z,84.55
2017-07-15T07:12:06.248Z,84.55
2017-07-15T07:13:06.073Z,83.97
2017-07-15T07:14:06.202Z,84.11
2017-07-15T07:15:05.731Z,83.34
2017-07-15T07:16:06.016Z,83.63
2017-07-15T07:17:05.694Z,82.96
2017-07-15T07:18:05.675Z,82.76
2017-07-15T07:19:05.655Z,83.15
2017-07-15T07:20:05.636Z,83.05
2017-07-15T07:21:05.618Z,83.25
2017-07-15T07:22:05.598Z,83.63
2017-07-15T07:23:05.580Z,82.67
2017-07-15T07:24:05.864Z,82.57
2017-07-15T07:25:05.542Z,82.57
2017-07-15T07:26:05.523Z,82.86
2017-07-15T07:27:05.809Z,82.38
2017-07-15T07:28:05.486Z,81.9
2017-07-15T07:29:05.769Z,82.29
2017-07-15T07:30:05.752Z,82
2017-07-15T07:31:05.751Z,82
2017-07-15T07:32:05.413Z,81.62
2017-07-15T07:33:05.393Z,81.85
2017-07-15T07:34:05.680Z,81.18
2017-07-15T07:35:05.662Z,81.27
2017-07-15T07:36:05.342Z,81.27
2017-07-15T07:37:05.321Z,80.51
2017-07-15T07:38:05.306Z,80.32
2017-07-15T07:39:05.285Z,80.99
2017-07-15T07:40:05.569Z,80.99
2017-07-15T07:41:05.553Z,80.99
2017-07-15T07:42:05.232Z,80.41
2017-07-15T07:43:05.518Z,79.93
2017-07-15T07:44:05.499Z,79.74
2017-07-15T07:45:05.178Z,80.03
2017-07-15T07:46:05.464Z,79.83
2017-07-15T07:47:05.142Z,79.16
2017-07-15T07:48:05.430Z,79.55
2017-07-15T07:49:05.107Z,79.45
2017-07-15T07:50:05.394Z,79.16
2017-07-15T07:51:05.073Z,79.45
2017-07-15T07:52:05.364Z,78.97
2017-07-15T07:53:05.343Z,78.88
2017-07-15T07:54:05.019Z,79.36
2017-07-15T07:55:05.346Z,79.3
2017-07-15T07:56:04.984Z,79.01
2017-07-15T07:57:05.272Z,78.82
2017-07-15T07:58:05.254Z,78.63
2017-07-15T07:59:04.931Z,78.34
2017-07-15T08:00:05.220Z,78.05
2017-07-15T08:01:05.200Z,78.05
2017-07-15T08:02:05.214Z,77.13
2017-07-15T08:03:05.167Z,77.38
2017-07-15T08:04:05.153Z,77.13
2017-07-15T08:05:05.134Z,76.84
2017-07-15T08:06:04.816Z,77.23
2017-07-15T08:07:05.101Z,76.94
2017-07-15T08:08:05.084Z,77.13
2017-07-15T08:09:05.068Z,76.07
2017-07-15T08:10:05.052Z,76.17
2017-07-15T08:11:05.032Z,76.07
2017-07-15T08:12:05.021Z,75.89
2017-07-15T08:13:05.358Z,75.6
2017-07-15T08:14:04.985Z,75.5
2017-07-15T08:15:04.664Z,75.5
2017-07-15T08:16:04.649Z,75.31
2017-07-15T08:17:04.937Z,74.96
2017-07-15T08:18:04.617Z,74.39
2017-07-15T08:19:04.601Z,74.68
2017-07-15T08:20:04.586Z,74.19
2017-07-15T08:21:04.914Z,74.01
2017-07-15T08:22:04.862Z,74.01
2017-07-15T08:23:04.540Z,73.72
2017-07-15T08:24:04.826Z,73.27
2017-07-15T08:25:04.812Z,73.46
2017-07-15T08:26:04.798Z,73.18
2017-07-15T08:27:04.783Z,72.79
2017-07-15T08:28:04.767Z,72.95
2017-07-15T08:29:04.447Z,72.95
2017-07-15T08:30:04.432Z,73.37
2017-07-15T08:31:04.416Z,72.79
2017-07-15T08:32:04.401Z,72.6
2017-07-15T08:33:04.691Z,71.93
2017-07-15T08:34:04.676Z,71.45
2017-07-15T08:35:04.913Z,70.97
2017-07-15T08:36:04.645Z,70.97
2017-07-15T08:37:04.632Z,70.78
2017-07-15T08:38:04.617Z,70.68
2017-07-15T08:39:04.601Z,70.49
2017-07-15T08:40:04.586Z,70.2
2017-07-15T08:41:04.571Z,70.49
2017-07-15T08:42:04.555Z,70.39
2017-07-15T08:43:04.543Z,70.01
2017-07-15T08:44:04.526Z,69.81
2017-07-15T08:45:04.206Z,69.53
2017-07-15T08:46:04.492Z,69.78
2017-07-15T08:47:04.174Z,69.68
2017-07-15T08:48:04.158Z,70.55
2017-07-15T08:49:04.143Z,70.7
2017-07-15T08:50:04.126Z,70.7
2017-07-15T08:51:04.413Z,71.09
2017-07-15T08:52:04.398Z,70.99
2017-07-15T08:53:04.077Z,70.99
2017-07-15T08:54:04.060Z,71.76
2017-07-15T08:55:04.348Z,71.57
2017-07-15T08:56:04.027Z,71.19
2017-07-15T08:57:04.011Z,71.09
2017-07-15T08:58:04.297Z,70.9
2017-07-15T08:59:04.339Z,71.28
2017-07-15T09:00:04.266Z,70.99
2017-07-15T09:01:04.247Z,71.03
2017-07-15T09:02:03.927Z,71.03
2017-07-15T09:03:03.911Z,71.28
2017-07-15T09:04:04.197Z,71.09
2017-07-15T09:05:04.183Z,71.47
2017-07-15T09:06:04.164Z,71.47
2017-07-15T09:07:03.844Z,71.19
2017-07-15T09:08:03.879Z,71.57
2017-07-15T09:09:04.115Z,70.99
2017-07-15T09:10:03.794Z,71.19
2017-07-15T09:11:03.779Z,70.9
2017-07-15T09:12:03.761Z,71.57
2017-07-15T09:13:03.744Z,71.37
2017-07-15T09:14:04.773Z,71.28
2017-07-15T09:15:03.712Z,72.14
2017-07-15T09:16:03.996Z,72.14
2017-07-15T09:17:03.980Z,72.53
2017-07-15T09:18:03.963Z,72.33
2017-07-15T09:19:03.947Z,72.43
2017-07-15T09:20:03.930Z,72.33
2017-07-15T09:21:03.608Z,72.72
2017-07-15T09:22:03.894Z,72.72
2017-07-15T09:23:03.879Z,73
2017-07-15T09:24:03.859Z,72.81
2017-07-15T09:25:03.842Z,73.26
2017-07-15T09:26:03.520Z,73.16
2017-07-15T09:27:03.806Z,73.1
2017-07-15T09:28:03.789Z,73.2
2017-07-15T09:29:03.772Z,73.39
2017-07-15T09:30:03.753Z,73.1
2017-07-15T09:31:03.739Z,72.91
2017-07-15T09:32:03.721Z,71.31
2017-07-15T09:33:03.707Z,70.39
2017-07-15T09:34:03.382Z,69.66
2017-07-15T09:35:04.226Z,68.7
2017-07-15T09:36:03.663Z,68.54
2017-07-15T09:37:03.881Z,67.96
2017-07-15T09:38:03.624Z,68.54
2017-07-15T09:39:03.607Z,68.79
2017-07-15T09:40:03.595Z,68.7
2017-07-15T09:41:03.579Z,69.43
2017-07-15T09:42:03.258Z,69.34
2017-07-15T09:43:03.547Z,69.43
2017-07-15T09:44:03.531Z,69.43
2017-07-15T09:45:03.518Z,69.62
2017-07-15T09:46:03.500Z,69.81
2017-07-15T09:47:03.180Z,69.81
2017-07-15T09:48:03.468Z,70.07
2017-07-15T09:49:03.450Z,69.87
2017-07-15T09:50:03.446Z,69.97
2017-07-15T09:51:03.421Z,69.3
2017-07-15T09:52:03.100Z,66.74
2017-07-15T09:53:03.513Z,64.79
2017-07-15T09:54:03.376Z,63.09
2017-07-15T09:55:03.366Z,61.04
2017-07-15T09:56:03.344Z,59.17
2017-07-15T09:57:03.332Z,57.1
2017-07-15T09:58:03.319Z,55.98
2017-07-15T09:59:03.306Z,54.75
2017-07-15T10:00:03.294Z,53.03
2017-07-15T10:01:03.283Z,52.29
2017-07-15T10:02:03.276Z,51.15
2017-07-15T10:03:03.261Z,50.12
2017-07-15T10:04:02.947Z,49.07
2017-07-15T10:05:03.412Z,48.79
2017-07-15T10:06:03.265Z,47.45
2017-07-15T10:07:03.223Z,47.74
2017-07-15T10:08:02.911Z,48.22
2017-07-15T10:09:03.206Z,49.17
2017-07-15T10:10:03.197Z,50.38
2017-07-15T10:11:03.193Z,50.16
2017-07-15T10:12:03.181Z,51.29
2017-07-15T10:13:03.174Z,52.31
2017-07-15T10:14:02.857Z,53.05
2017-07-15T10:15:03.152Z,54.47
2017-07-15T10:16:02.839Z,55.02
2017-07-15T10:17:03.132Z,55.31
2017-07-15T10:18:03.172Z,55.6
2017-07-15T10:19:03.110Z,55.19
2017-07-15T10:20:03.520Z,54.54
2017-07-15T10:21:02.783Z,54.74
2017-07-15T10:22:02.773Z,55.22
2017-07-15T10:23:02.762Z,55.31
2017-07-15T10:24:03.055Z,55.77
2017-07-15T10:25:02.738Z,55.55
2017-07-15T10:26:03.030Z,54.22
2017-07-15T10:27:03.018Z,52.42
2017-07-15T10:28:02.704Z,52.06
2017-07-15T10:29:02.995Z,51.97
2017-07-15T10:30:02.681Z,50.81
2017-07-15T10:31:02.972Z,49.58
2017-07-15T10:32:02.654Z,48.35
2017-07-15T10:33:02.950Z,48.06
2017-07-15T10:34:02.938Z,47.6
2017-07-15T10:35:02.624Z,47.8
2017-07-15T10:36:02.915Z,48.18
2017-07-15T10:37:02.904Z,48.93
2017-07-15T10:38:02.892Z,49.1
2017-07-15T10:39:02.879Z,50.23
2017-07-15T10:40:02.868Z,50.59
2017-07-15T10:41:02.552Z,51.26
2017-07-15T10:42:02.541Z,51.53
2017-07-15T10:43:02.831Z,52.11
2017-07-15T10:44:02.515Z,53.43
2017-07-15T10:45:02.806Z,53.11
2017-07-15T10:46:02.488Z,53.78
2017-07-15T10:47:02.475Z,54.94
2017-07-15T10:48:02.764Z,55.2
2017-07-15T10:49:02.753Z,55.01
2017-07-15T10:50:02.738Z,55.56
2017-07-15T10:51:02.719Z,55.46
2017-07-15T10:52:02.449Z,55.66
2017-07-15T10:53:02.689Z,55.82
2017-07-15T10:54:02.371Z,55.53
2017-07-15T10:55:02.658Z,56.59
2017-07-15T10:56:02.345Z,56.11
2017-07-15T10:57:02.324Z,56.4
2017-07-15T10:58:02.609Z,56.68
2017-07-15T10:59:02.291Z,56.59
2017-07-15T11:00:02.274Z,56.3
2017-07-15T11:01:02.560Z,56.68
2017-07-15T11:02:02.544Z,56.59
2017-07-15T11:03:02.226Z,56.68
2017-07-15T11:04:02.512Z,56.01
2017-07-15T11:05:02.193Z,56.04
2017-07-15T11:06:02.479Z,56.23
2017-07-15T11:07:02.161Z,56.23
2017-07-15T11:08:02.145Z,56.23
2017-07-15T11:09:02.431Z,55.76
2017-07-15T11:10:02.113Z,55.49
2017-07-15T11:11:02.097Z,55.78
2017-07-15T11:12:02.471Z,55.43
2017-07-15T11:13:02.218Z,54.94
2017-07-15T11:14:02.051Z,53.98
2017-07-15T11:15:02.036Z,54.36
2017-07-15T11:16:02.020Z,54.36
2017-07-15T11:17:02.310Z,54.08
2017-07-15T11:18:01.991Z,54.08
2017-07-15T11:19:02.283Z,53.4
2017-07-15T11:20:01.961Z,53.21
2017-07-15T11:21:02.252Z,52.54
2017-07-15T11:22:01.932Z,52.44
2017-07-15T11:23:01.916Z,52.34
2017-07-15T11:24:02.205Z,52.54
2017-07-15T11:25:01.890Z,52.34
2017-07-15T11:26:02.177Z,52.51
2017-07-15T11:27:02.161Z,52.51
2017-07-15T11:28:02.146Z,52.51
2017-07-15T11:29:01.827Z,53.28
2017-07-15T11:30:02.118Z,53.19
2017-07-15T11:31:02.105Z,53.66
2017-07-15T11:32:02.087Z,53.35
2017-07-15T11:33:02.076Z,54.12
2017-07-15T11:34:01.751Z,54.02
2017-07-15T11:35:02.039Z,54.12
2017-07-15T11:36:02.031Z,54.31
2017-07-15T11:37:02.011Z,54.41
2017-07-15T11:38:01.993Z,54.31
2017-07-15T11:39:01.981Z,54.31
2017-07-15T11:40:01.963Z,54.14
2017-07-15T11:41:01.641Z,54.34
2017-07-15T11:42:01.933Z,53.19
2017-07-15T11:43:01.916Z,52.89
2017-07-15T11:44:01.901Z,53.02
2017-07-15T11:45:01.581Z,53.11
2017-07-15T11:46:01.872Z,52.73
2017-07-15T11:47:01.856Z,52.44
2017-07-15T11:48:01.537Z,52.06
2017-07-15T11:49:01.522Z,51.7
2017-07-15T11:50:01.814Z,51.21
2017-07-15T11:51:01.796Z,50.73
2017-07-15T11:52:01.781Z,51.02
2017-07-15T11:53:01.770Z,50.25
2017-07-15T11:54:01.755Z,50.15
2017-07-15T11:55:01.751Z,50.15
2017-07-15T11:56:01.737Z,49.02
2017-07-15T11:57:01.713Z,48.08
2017-07-15T11:58:01.715Z,46.08
2017-07-15T11:59:01.686Z,44.87
2017-07-15T12:00:01.675Z,43.47
2017-07-15T12:01:01.660Z,42.04
2017-07-15T12:02:01.650Z,41.09
2017-07-15T12:03:01.637Z,39.67
2017-07-15T12:04:01.322Z,39.03
2017-07-15T12:05:01.617Z,38.37
2017-07-15T12:06:01.608Z,37.81
2017-07-15T12:07:01.601Z,36.83
2017-07-15T12:08:01.591Z,36.27
2017-07-15T12:09:01.583Z,36.19
2017-07-15T12:10:01.579Z,35.78
2017-07-15T12:11:01.566Z,35.41
2017-07-15T12:12:01.575Z,35.49
2017-07-15T12:13:01.250Z,36.46
2017-07-15T12:14:01.546Z,36.54
2017-07-15T12:15:01.539Z,36.72
2017-07-15T12:16:01.533Z,37.01
2017-07-15T12:17:01.528Z,37.96
2017-07-15T12:18:01.215Z,38.5
2017-07-15T12:19:01.211Z,38.5
2017-07-15T12:20:01.505Z,37.54
2017-07-15T12:21:01.194Z,37.65
2017-07-15T12:22:01.489Z,37.36
2017-07-15T12:23:01.179Z,36.88
2017-07-15T12:24:01.171Z,36.12
2017-07-15T12:25:01.468Z,35.05
2017-07-15T12:26:01.464Z,34.97
2017-07-15T12:27:01.455Z,34.97
2017-07-15T12:28:01.464Z,34.69
2017-07-15T12:29:01.443Z,34.51
2017-07-15T12:30:01.133Z,34.02
2017-07-15T12:31:01.432Z,33.46
2017-07-15T12:32:01.123Z,33.09
2017-07-15T12:33:01.426Z,33.01
2017-07-15T12:34:01.415Z,32.54
2017-07-15T12:35:01.412Z,32.42
2017-07-15T12:36:01.406Z,32.42
2017-07-15T12:37:01.097Z,32.99
2017-07-15T12:38:01.399Z,32.89
2017-07-15T12:39:01.394Z,33.46
2017-07-15T12:40:01.083Z,33.46
2017-07-15T12:41:01.078Z,33.07
2017-07-15T12:42:01.074Z,33.26
2017-07-15T12:43:01.374Z,33.15
2017-07-15T12:44:01.369Z,32.97
2017-07-15T12:45:01.364Z,33.26
2017-07-15T12:46:01.361Z,34.12
2017-07-15T12:47:01.354Z,34.69
2017-07-15T12:48:01.349Z,34.86
2017-07-15T12:49:01.343Z,35.42
2017-07-15T12:50:01.339Z,35.7
2017-07-15T12:51:01.331Z,36.18
2017-07-15T12:52:01.325Z,36.26
2017-07-15T12:53:01.014Z,36.72
2017-07-15T12:54:01.006Z,36.63
2017-07-15T12:55:01.303Z,36.52